首页
METAR-TAF:

METAR-TAF

机场 :

武汉天河国际机场

武汉, 中华人民共和国

纬度: 30-37N, 经度: 114-08E, 海拔: 23米

当前天气观测

该预报发布于57分钟前的07:00 UTC
风速6节,风向,在西北东北之间变化
温度 22°C
湿度 69%
气压 1014 hPa
能見度: 8000
少量云层高于2000英尺
散云层高于3000英尺

METAR: ZHHH 220700Z 36003MPS 310V050 8000 FEW020 SCT030 22/16 Q1014 NOSIG

时间: 15:57 (07:57 UTC)

预报

该预报发布于5小时和54分钟前的02:03 UTC
预报有效从22日的 06点(UTC)到 23日的 06点(UTC)
风速6节,风向北转东北
能見度: 3000
散云层高于2000英尺
轻雾

TAF: ZHHH 220203Z 2206/2306 02003MPS 3000 BR SCT020 TX25/2207Z TN16/2222Z

超过4000个机场的气象观测和天气预报(METAR&TAF报告)。

可查询的气象台以黄色和红色小点在地图上表示。

将鼠标移到小点上方,可查看气象台名称。

然后点击查看天气观测和预报。

如需切换地图:点击带黑十字的绿色按钮放大地图;点击带横线的绿色按钮缩小地图;或者点击绿色箭头查看邻近地区的地图。


METAR-TAF: